Portada
METAR-TAF:

METAR-TAF

Aeropuertos :

Farmington Regional Airport

Farmington, Misuri, Estados Unidos

latitud: 37-46N, longitud: 090-26W, altitud: 288 m

Observación

El informe se hizo hace 14 minutos, a las 09:34 UTC
Viento 6 kt del norte-noroeste
Temperatura 7°C
Humedad 81%
Presión 1021 hPa
Visibilidad: 16.1 km
Cielo nuboso a una altura de 2000 ft
Cielo cubierto a una altura de 6000 ft

METAR: KFAM 260934Z AUTO 34006KT 10SM BKN020 OVC060 07/04 A3015 RMK AO2

Hora: 04:48 (09:48 UTC)


TAF: falta

Observaciones y pronósticos meteorológicos de más de 4000 aeropuertos (mensajes METAR y TAF).

Los puntos amarillos y rojos representan las estaciones disponibles.

Ponga el ratón en el punto deseado para ver el nombre de la estación.

Haga clic para ver las observaciones y los pronósticos meteorológicos.

Para cambiar el mapa : haga clic en los botones verdes con una cruz de color negro para hacer un zoom, en el botón verde con un guión para alejar o en las flechas verdes para mapas adyacentes.


METAR-TAF: